Norristown, Pennsylvania
Current Conditions -  °F | °C
As of 1:15 AM on Tuesday 21 Oct 2014 (Local Time) from KLOM Reporting Station
Broken Clouds Broken Clouds  
Wind Chill: 55°   Ceiling: 8000
Heat Index: 55°   Visibility: 10mi
Dew Point: 46°   Wind: 5mph
Humidity: 72%   Direction: 210°SSW
Pressure: 29.93"   Gusts: NA
Location:  40.11°N, 75.34°W
Report Text: KLOM 210515Z AUTO 21004KT 10SM SCT060 BKN080 13/08 A2993 RMK AO1
Loading
Personal Weather Stations






























Interactive Weather Map
Tropical Storm Tracking
New forecast layout! Learn more

10-Day Weather Forecast

Advertisements
Track Severe Weather on mobile